sensor_id;sensor_type;location;lat;lon;timestamp;temperature;humidity
15235;DHT22;7720;51.926;4.488;2022-08-18T00:01:13;20.40;99.90
15235;DHT22;7720;51.926;4.488;2022-08-18T00:06:21;20.50;99.90
15235;DHT22;7720;51.926;4.488;2022-08-18T00:11:24;20.50;99.90
15235;DHT22;7720;51.926;4.488;2022-08-18T00:16:28;20.40;99.90
15235;DHT22;7720;51.926;4.488;2022-08-18T00:21:33;20.30;99.90
15235;DHT22;7720;51.926;4.488;2022-08-18T00:26:36;20.20;99.90
15235;DHT22;7720;51.926;4.488;2022-08-18T00:31:42;20.00;99.90
15235;DHT22;7720;51.926;4.488;2022-08-18T00:36:47;20.10;99.90
15235;DHT22;7720;51.926;4.488;2022-08-18T00:41:50;19.90;99.90
15235;DHT22;7720;51.926;4.488;2022-08-18T00:46:54;20.10;99.90
15235;DHT22;7720;51.926;4.488;2022-08-18T00:51:59;20.10;99.90
15235;DHT22;7720;51.926;4.488;2022-08-18T00:57:04;20.20;99.90
15235;DHT22;7720;51.926;4.488;2022-08-18T01:02:13;20.40;99.90
15235;DHT22;7720;51.926;4.488;2022-08-18T01:07:21;20.50;99.90
15235;DHT22;7720;51.926;4.488;2022-08-18T01:12:26;20.50;99.90
15235;DHT22;7720;51.926;4.488;2022-08-18T01:17:47;20.20;99.90
15235;DHT22;7720;51.926;4.488;2022-08-18T01:23:13;20.20;99.90
15235;DHT22;7720;51.926;4.488;2022-08-18T01:28:17;20.40;99.90
15235;DHT22;7720;51.926;4.488;2022-08-18T01:33:23;20.40;99.90
15235;DHT22;7720;51.926;4.488;2022-08-18T01:38:32;20.10;99.90
15235;DHT22;7720;51.926;4.488;2022-08-18T01:43:36;20.40;99.90
15235;DHT22;7720;51.926;4.488;2022-08-18T01:48:39;20.30;99.90
15235;DHT22;7720;51.926;4.488;2022-08-18T01:53:45;20.50;99.90
15235;DHT22;7720;51.926;4.488;2022-08-18T01:58:49;20.60;99.90
15235;DHT22;7720;51.926;4.488;2022-08-18T02:03:57;20.20;99.90
15235;DHT22;7720;51.926;4.488;2022-08-18T02:09:23;20.50;99.90
15235;DHT22;7720;51.926;4.488;2022-08-18T02:14:26;20.10;99.90
15235;DHT22;7720;51.926;4.488;2022-08-18T02:19:33;19.90;99.90
15235;DHT22;7720;51.926;4.488;2022-08-18T02:24:39;19.90;99.90
15235;DHT22;7720;51.926;4.488;2022-08-18T02:29:42;20.10;99.90
15235;DHT22;7720;51.926;4.488;2022-08-18T02:34:46;20.30;99.90
15235;DHT22;7720;51.926;4.488;2022-08-18T02:39:50;20.30;99.90
15235;DHT22;7720;51.926;4.488;2022-08-18T02:44:53;20.30;99.90
15235;DHT22;7720;51.926;4.488;2022-08-18T02:49:56;20.00;99.90
15235;DHT22;7720;51.926;4.488;2022-08-18T02:55:02;20.20;99.90
15235;DHT22;7720;51.926;4.488;2022-08-18T03:00:07;20.40;99.90
15235;DHT22;7720;51.926;4.488;2022-08-18T03:05:11;20.40;99.90
15235;DHT22;7720;51.926;4.488;2022-08-18T03:10:17;20.50;99.90
15235;DHT22;7720;51.926;4.488;2022-08-18T03:15:34;20.50;99.90
15235;DHT22;7720;51.926;4.488;2022-08-18T03:20:37;20.30;99.90
15235;DHT22;7720;51.926;4.488;2022-08-18T03:25:45;20.20;99.90
15235;DHT22;7720;51.926;4.488;2022-08-18T03:30:48;20.10;99.90
15235;DHT22;7720;51.926;4.488;2022-08-18T03:35:52;20.10;99.90
15235;DHT22;7720;51.926;4.488;2022-08-18T03:40:56;19.80;99.90
15235;DHT22;7720;51.926;4.488;2022-08-18T03:46:00;19.90;99.90
15235;DHT22;7720;51.926;4.488;2022-08-18T03:51:06;20.00;99.90
15235;DHT22;7720;51.926;4.488;2022-08-18T03:56:13;20.10;99.90
15235;DHT22;7720;51.926;4.488;2022-08-18T04:01:20;20.30;99.90
15235;DHT22;7720;51.926;4.488;2022-08-18T04:06:30;20.20;99.90
15235;DHT22;7720;51.926;4.488;2022-08-18T04:11:37;20.00;99.90
15235;DHT22;7720;51.926;4.488;2022-08-18T04:16:44;19.90;99.90
15235;DHT22;7720;51.926;4.488;2022-08-18T04:21:50;20.00;99.90
15235;DHT22;7720;51.926;4.488;2022-08-18T04:26:56;20.00;99.90
15235;DHT22;7720;51.926;4.488;2022-08-18T04:32:01;19.90;99.90
15235;DHT22;7720;51.926;4.488;2022-08-18T04:37:06;19.80;99.90
15235;DHT22;7720;51.926;4.488;2022-08-18T04:42:11;19.90;99.90
15235;DHT22;7720;51.926;4.488;2022-08-18T04:47:15;19.90;99.90
15235;DHT22;7720;51.926;4.488;2022-08-18T04:52:18;19.70;99.90
15235;DHT22;7720;51.926;4.488;2022-08-18T04:57:44;19.90;99.90
15235;DHT22;7720;51.926;4.488;2022-08-18T05:02:47;20.00;99.90
15235;DHT22;7720;51.926;4.488;2022-08-18T05:07:50;20.20;99.90
15235;DHT22;7720;51.926;4.488;2022-08-18T05:12:56;20.40;99.90
15235;DHT22;7720;51.926;4.488;2022-08-18T05:17:59;20.50;99.90
15235;DHT22;7720;51.926;4.488;2022-08-18T05:23:02;20.60;99.90
15235;DHT22;7720;51.926;4.488;2022-08-18T05:28:07;20.60;99.90
15235;DHT22;7720;51.926;4.488;2022-08-18T05:33:11;20.90;99.90
15235;DHT22;7720;51.926;4.488;2022-08-18T05:38:27;21.10;99.90
15235;DHT22;7720;51.926;4.488;2022-08-18T05:43:34;21.30;99.90
15235;DHT22;7720;51.926;4.488;2022-08-18T05:48:54;21.50;99.90
15235;DHT22;7720;51.926;4.488;2022-08-18T05:53:57;21.70;99.90
15235;DHT22;7720;51.926;4.488;2022-08-18T05:59:24;22.00;99.90
15235;DHT22;7720;51.926;4.488;2022-08-18T06:04:38;22.20;99.90
15235;DHT22;7720;51.926;4.488;2022-08-18T06:09:47;22.20;99.90
15235;DHT22;7720;51.926;4.488;2022-08-18T06:15:07;22.50;99.90
15235;DHT22;7720;51.926;4.488;2022-08-18T06:20:18;22.80;99.90
15235;DHT22;7720;51.926;4.488;2022-08-18T06:25:28;23.10;99.90
15235;DHT22;7720;51.926;4.488;2022-08-18T06:30:45;23.30;99.90
15235;DHT22;7720;51.926;4.488;2022-08-18T06:35:53;23.40;99.90
15235;DHT22;7720;51.926;4.488;2022-08-18T06:41:01;23.70;99.90
